createdAt,value
2022-08-30T00:00:58.727Z,101812.81
2022-08-30T00:03:25.566Z,101812.53
2022-08-30T00:05:52.069Z,101814.34
2022-08-30T00:08:22.960Z,101816.94
2022-08-30T00:10:51.120Z,101818.59
2022-08-30T00:13:18.729Z,101816.13
2022-08-30T00:15:45.998Z,101817.09
2022-08-30T00:18:12.532Z,101810.09
2022-08-30T00:20:39.018Z,101806.78
2022-08-30T00:23:06.227Z,101798.84
2022-08-30T00:25:33.118Z,101801.28
2022-08-30T00:27:59.563Z,101800.13
2022-08-30T00:30:26.522Z,101796.56
2022-08-30T00:32:53.953Z,101798.63
2022-08-30T00:35:21.171Z,101803.38
2022-08-30T00:37:48.638Z,101810.41
2022-08-30T00:40:16.034Z,101813.06
2022-08-30T00:42:44.128Z,101819.22
2022-08-30T00:45:26.012Z,101816.00
2022-08-30T00:47:52.411Z,101811.56
2022-08-30T00:50:21.779Z,101817.97
2022-08-30T00:52:50.645Z,101815.22
2022-08-30T00:55:18.181Z,101822.84
2022-08-30T00:57:46.737Z,101823.75
2022-08-30T01:00:18.378Z,101827.25
2022-08-30T01:02:44.817Z,101833.47
2022-08-30T01:05:16.094Z,101829.06
2022-08-30T01:07:42.799Z,101834.41
2022-08-30T01:10:11.488Z,101830.13
2022-08-30T01:12:39.894Z,101829.13
2022-08-30T01:15:07.643Z,101830.06
2022-08-30T01:17:34.534Z,101829.13
2022-08-30T01:20:08.506Z,101828.38
2022-08-30T01:22:43.278Z,101838.16
2022-08-30T01:25:12.646Z,101837.16
2022-08-30T01:27:44.542Z,101833.53
2022-08-30T01:30:12.085Z,101842.28
2022-08-30T01:32:41.678Z,101839.66
2022-08-30T01:35:08.955Z,101851.41
2022-08-30T01:37:37.160Z,101849.63
2022-08-30T01:40:05.917Z,101843.47
2022-08-30T01:42:32.649Z,101849.75
2022-08-30T01:44:59.170Z,101847.31
2022-08-30T01:47:25.864Z,101848.06
2022-08-30T01:49:52.266Z,101849.03
2022-08-30T01:52:18.803Z,101848.59
2022-08-30T01:54:46.093Z,101846.53
2022-08-30T01:57:17.395Z,101845.66
2022-08-30T01:59:47.526Z,101839.47
2022-08-30T02:02:16.829Z,101842.09
2022-08-30T02:04:43.801Z,101837.84
2022-08-30T02:07:11.057Z,101839.72
2022-08-30T02:09:37.872Z,101838.69
2022-08-30T02:12:07.216Z,101839.75
2022-08-30T02:14:37.784Z,101841.34
2022-08-30T02:17:07.360Z,101835.25
2022-08-30T02:19:34.029Z,101831.81
2022-08-30T02:22:00.445Z,101833.63
2022-08-30T02:24:27.248Z,101830.22
2022-08-30T02:26:54.059Z,101831.78
2022-08-30T02:29:22.240Z,101827.34
2022-08-30T02:31:48.784Z,101829.19
2022-08-30T02:34:16.217Z,101828.38
2022-08-30T02:36:43.099Z,101826.34
2022-08-30T02:39:11.990Z,101839.50
2022-08-30T02:41:39.115Z,101839.56
2022-08-30T02:44:06.547Z,101830.94
2022-08-30T02:46:34.510Z,101836.06
2022-08-30T02:49:13.035Z,101831.53
2022-08-30T02:51:47.843Z,101837.50
2022-08-30T02:54:19.919Z,101828.94
2022-08-30T02:56:47.843Z,101834.09
2022-08-30T02:59:15.300Z,101834.16
2022-08-30T03:01:41.768Z,101830.69
2022-08-30T03:04:08.435Z,101829.16
2022-08-30T03:06:34.870Z,101834.47
2022-08-30T03:09:01.501Z,101829.09
2022-08-30T03:11:27.977Z,101836.78
2022-08-30T03:13:54.480Z,101833.13
2022-08-30T03:16:22.661Z,101838.44
2022-08-30T03:18:49.179Z,101838.50
2022-08-30T03:21:17.094Z,101839.56
2022-08-30T03:23:44.396Z,101832.41
2022-08-30T03:26:13.141Z,101840.41
2022-08-30T03:28:40.143Z,101835.97
2022-08-30T03:31:07.000Z,101835.16
2022-08-30T03:33:33.427Z,101835.16
2022-08-30T03:36:00.226Z,101841.22
2022-08-30T03:38:26.717Z,101835.25
2022-08-30T03:40:53.212Z,101838.69
2022-08-30T03:43:19.595Z,101845.66
2022-08-30T03:45:46.143Z,101843.88
2022-08-30T03:48:12.900Z,101839.53
2022-08-30T03:50:40.411Z,101842.16
2022-08-30T03:53:06.945Z,101836.97
2022-08-30T03:55:33.723Z,101832.66
2022-08-30T03:58:00.343Z,101838.66
2022-08-30T04:00:26.874Z,101841.31
2022-08-30T04:02:53.328Z,101836.91
2022-08-30T04:05:20.277Z,101841.28
2022-08-30T04:07:46.703Z,101837.84
2022-08-30T04:10:13.262Z,101842.06
2022-08-30T04:12:39.690Z,101844.63
2022-08-30T04:15:07.600Z,101838.44
2022-08-30T04:17:34.002Z,101838.16
2022-08-30T04:20:00.439Z,101839.91
2022-08-30T04:22:26.772Z,101832.84
2022-08-30T04:24:53.350Z,101846.06
2022-08-30T04:27:20.429Z,101846.16
2022-08-30T04:29:47.670Z,101848.75
2022-08-30T04:32:14.617Z,101839.78
2022-08-30T04:34:40.994Z,101843.59
2022-08-30T04:37:07.408Z,101841.06
2022-08-30T04:39:36.475Z,101848.78
2022-08-30T04:42:03.345Z,101845.31
2022-08-30T04:44:31.416Z,101846.38
2022-08-30T04:46:58.919Z,101838.56
2022-08-30T04:49:25.261Z,101842.91
2022-08-30T04:51:51.619Z,101846.38
2022-08-30T04:54:19.332Z,101852.50
2022-08-30T04:56:45.748Z,101857.81
2022-08-30T04:59:12.153Z,101862.28
2022-08-30T05:01:45.660Z,101866.69
2022-08-30T05:04:13.069Z,101869.47
2022-08-30T05:06:39.464Z,101863.38
2022-08-30T05:09:05.892Z,101874.81
2022-08-30T05:11:32.317Z,101872.13
2022-08-30T05:13:58.992Z,101879.25
2022-08-30T05:16:25.980Z,101876.53
2022-08-30T05:18:53.713Z,101873.81
2022-08-30T05:21:23.562Z,101878.22
2022-08-30T05:23:50.570Z,101878.56
2022-08-30T05:26:25.709Z,101874.22
2022-08-30T05:28:52.567Z,101878.41
2022-08-30T05:31:45.353Z,101875.75
2022-08-30T05:34:11.992Z,101882.69
2022-08-30T05:36:38.977Z,101882.78
2022-08-30T05:39:07.516Z,101884.44
2022-08-30T05:41:36.873Z,101883.47
2022-08-30T05:44:05.150Z,101885.97
2022-08-30T05:49:06.270Z,101886.88
2022-08-30T05:51:35.896Z,101885.72
2022-08-30T05:54:09.553Z,101882.19
2022-08-30T05:56:39.294Z,101880.47
2022-08-30T05:59:07.589Z,101885.81
2022-08-30T06:01:37.826Z,101886.59
2022-08-30T06:04:06.259Z,101883.66
2022-08-30T06:06:35.376Z,101885.25
2022-08-30T06:09:05.131Z,101891.38
2022-08-30T06:11:32.881Z,101887.69
2022-08-30T06:13:59.288Z,101886.59
2022-08-30T06:16:28.302Z,101889.19
2022-08-30T06:18:57.107Z,101877.56
2022-08-30T06:21:28.582Z,101881.91
2022-08-30T06:23:56.356Z,101885.19
2022-08-30T06:26:23.277Z,101886.75
2022-08-30T06:28:49.793Z,101890.09
2022-08-30T06:31:18.648Z,101896.97
2022-08-30T06:33:45.637Z,101890.50
2022-08-30T06:36:19.112Z,101901.09
2022-08-30T06:38:46.832Z,101897.25
2022-08-30T06:41:16.807Z,101898.94
2022-08-30T06:43:48.632Z,101905.16
2022-08-30T06:46:18.632Z,101903.56
2022-08-30T06:48:47.788Z,101902.72
2022-08-30T06:51:15.614Z,101903.56
2022-08-30T06:53:42.610Z,101907.91
2022-08-30T06:56:16.478Z,101909.69
2022-08-30T06:58:44.051Z,101909.63
2022-08-30T07:01:18.035Z,101908.00
2022-08-30T07:03:44.527Z,101902.72
2022-08-30T07:06:11.350Z,101911.53
2022-08-30T07:08:38.561Z,101909.41
2022-08-30T07:11:06.026Z,101906.31
2022-08-30T07:13:32.581Z,101909.41
2022-08-30T07:15:59.026Z,101910.44
2022-08-30T07:18:44.360Z,101906.94
2022-08-30T07:21:16.442Z,101906.69
2022-08-30T07:23:44.736Z,101914.41
2022-08-30T07:26:13.600Z,101920.31
2022-08-30T07:28:42.437Z,101921.84
2022-08-30T07:31:09.920Z,101921.53
2022-08-30T07:33:36.541Z,101923.69
2022-08-30T07:36:05.113Z,101922.56
2022-08-30T07:38:31.979Z,101921.44
2022-08-30T07:41:01.273Z,101920.34
2022-08-30T07:43:28.592Z,101920.34
2022-08-30T07:45:58.032Z,101925.78
2022-08-30T07:48:24.568Z,101928.56
2022-08-30T07:50:56.377Z,101925.88
2022-08-30T07:53:24.447Z,101926.34
2022-08-30T07:55:50.974Z,101929.31
2022-08-30T07:58:17.608Z,101930.97
2022-08-30T08:00:44.214Z,101932.81
2022-08-30T08:03:10.977Z,101942.81
2022-08-30T08:05:42.696Z,101930.44
2022-08-30T08:08:09.896Z,101933.63
2022-08-30T08:10:39.690Z,101936.91
2022-08-30T08:13:06.257Z,101933.13
2022-08-30T08:15:33.589Z,101933.34
2022-08-30T08:18:01.078Z,101939.75
2022-08-30T08:20:29.102Z,101938.16
2022-08-30T08:22:55.674Z,101944.28
2022-08-30T08:25:22.861Z,101945.41
2022-08-30T08:27:50.780Z,101947.91
2022-08-30T08:30:21.905Z,101948.88
2022-08-30T08:32:49.408Z,101949.56
2022-08-30T08:35:17.589Z,101954.66
2022-08-30T08:37:44.233Z,101961.13
2022-08-30T08:40:16.073Z,101956.09
2022-08-30T08:42:58.721Z,101958.47
2022-08-30T08:45:36.152Z,101965.97
2022-08-30T08:48:17.802Z,101963.84
2022-08-30T08:51:07.216Z,101965.53
2022-08-30T08:53:46.224Z,101958.47
2022-08-30T08:56:16.270Z,101960.19
2022-08-30T08:58:46.151Z,101964.84
2022-08-30T09:01:16.063Z,101969.44
2022-08-30T09:03:45.567Z,101967.16
2022-08-30T09:06:24.750Z,101960.59
2022-08-30T09:08:51.290Z,101961.06
2022-08-30T09:11:26.328Z,101957.19
2022-08-30T09:13:54.517Z,101959.88
2022-08-30T09:16:45.489Z,101959.16
2022-08-30T09:19:12.024Z,101964.13
2022-08-30T09:21:38.503Z,101955.50
2022-08-30T09:24:07.206Z,101957.16
2022-08-30T09:26:36.089Z,101961.72
2022-08-30T09:29:04.969Z,101958.78
2022-08-30T09:31:45.470Z,101962.44
2022-08-30T09:34:17.967Z,101959.44
2022-08-30T09:36:49.723Z,101955.19
2022-08-30T09:39:18.533Z,101953.03
2022-08-30T09:41:48.509Z,101954.66
2022-08-30T09:44:25.121Z,101954.22
2022-08-30T09:46:54.460Z,101955.28
2022-08-30T09:49:37.949Z,101957.84
2022-08-30T09:52:13.511Z,101961.75
2022-08-30T09:54:52.438Z,101958.53
2022-08-30T09:57:57.839Z,101961.75
2022-08-30T10:00:31.395Z,101961.56
2022-08-30T10:06:38.896Z,101961.63
2022-08-30T10:09:38.685Z,101957.66
2022-08-30T10:12:34.390Z,101967.13
2022-08-30T10:15:24.760Z,101969.50
2022-08-30T10:18:06.917Z,101977.31
2022-08-30T10:20:35.951Z,101973.59
2022-08-30T10:23:11.644Z,101972.03
2022-08-30T10:25:48.134Z,101983.69
2022-08-30T10:28:19.691Z,101980.53
2022-08-30T10:30:57.004Z,101982.47
2022-08-30T10:33:28.646Z,101978.97
2022-08-30T10:36:01.924Z,101984.59
2022-08-30T10:38:35.378Z,101981.09
2022-08-30T10:41:22.021Z,101984.22
2022-08-30T10:44:23.148Z,101979.03
2022-08-30T10:47:18.555Z,101984.50
2022-08-30T10:49:57.210Z,101988.00
2022-08-30T10:52:27.792Z,101983.78
2022-08-30T10:55:00.053Z,101981.69
2022-08-30T10:57:27.170Z,101985.66
2022-08-30T11:00:24.844Z,101975.06
2022-08-30T11:03:09.921Z,101976.41
2022-08-30T11:05:58.230Z,101975.00
2022-08-30T11:08:46.187Z,101978.03
2022-08-30T11:11:50.453Z,101972.34
2022-08-30T11:14:19.865Z,101970.63
2022-08-30T11:16:54.801Z,101973.00
2022-08-30T11:19:26.498Z,101976.84
2022-08-30T11:22:22.479Z,101972.00
2022-08-30T11:25:38.770Z,101982.75
2022-08-30T11:28:06.254Z,101975.59
2022-08-30T11:30:32.554Z,101968.81
2022-08-30T11:33:22.353Z,101967.88
2022-08-30T11:35:52.282Z,101971.06
2022-08-30T11:38:28.146Z,101964.91
2022-08-30T11:40:54.450Z,101967.38
2022-08-30T11:43:39.945Z,101966.16
2022-08-30T11:46:36.058Z,101958.22
2022-08-30T11:49:14.867Z,101958.78
2022-08-30T11:55:19.014Z,101952.38
2022-08-30T11:58:23.353Z,101939.78
2022-08-30T12:01:41.933Z,101951.38
2022-08-30T12:04:08.053Z,101947.09
2022-08-30T12:06:41.720Z,101944.41
2022-08-30T12:09:20.160Z,101941.00
2022-08-30T12:11:55.698Z,101939.13
2022-08-30T12:14:44.520Z,101941.66
2022-08-30T12:17:36.352Z,101940.28
2022-08-30T12:20:05.455Z,101945.53
2022-08-30T12:22:37.632Z,101946.47
2022-08-30T12:25:16.776Z,101947.25
2022-08-30T12:27:43.197Z,101948.75
2022-08-30T12:30:10.268Z,101940.50
2022-08-30T12:32:45.211Z,101940.34
2022-08-30T12:35:24.508Z,101936.19
2022-08-30T12:38:04.281Z,101925.50
2022-08-30T12:40:31.530Z,101926.19
2022-08-30T12:43:01.518Z,101931.53
2022-08-30T12:45:36.913Z,101921.06
2022-08-30T12:48:07.604Z,101921.81
2022-08-30T12:50:38.062Z,101930.06
2022-08-30T12:53:14.265Z,101920.16
2022-08-30T12:55:59.229Z,101916.41
2022-08-30T12:58:48.166Z,101922.75
2022-08-30T13:01:28.414Z,101925.91
2022-08-30T13:04:18.718Z,101914.69
2022-08-30T13:06:55.912Z,101922.84
2022-08-30T13:09:26.816Z,101918.94
2022-08-30T13:11:53.762Z,101915.78
2022-08-30T13:14:42.433Z,101914.00
2022-08-30T13:17:25.506Z,101918.94
2022-08-30T13:19:57.747Z,101918.34
2022-08-30T13:22:27.958Z,101919.91
2022-08-30T13:24:55.509Z,101927.22
2022-08-30T13:27:22.731Z,101922.75
2022-08-30T13:29:49.227Z,101934.69
2022-08-30T13:32:16.576Z,101926.41
2022-08-30T13:34:43.893Z,101928.81
2022-08-30T13:40:07.846Z,101925.84
2022-08-30T13:42:35.672Z,101922.00
2022-08-30T13:45:02.875Z,101913.00
2022-08-30T13:47:32.491Z,101914.34
2022-08-30T13:49:59.325Z,101913.59
2022-08-30T13:52:26.038Z,101912.41
2022-08-30T13:54:54.503Z,101916.28
2022-08-30T14:00:17.323Z,101921.41
2022-08-30T14:02:49.032Z,101919.97
2022-08-30T14:05:47.063Z,101915.06
2022-08-30T14:08:05.962Z,101906.88
2022-08-30T14:10:37.704Z,101910.19
2022-08-30T14:13:12.256Z,101912.22
2022-08-30T14:15:41.263Z,101913.28
2022-08-30T14:18:08.484Z,101914.63
2022-08-30T14:20:38.748Z,101909.63
2022-08-30T14:23:07.656Z,101911.09
2022-08-30T14:25:37.161Z,101909.97
2022-08-30T14:28:03.783Z,101915.97
2022-08-30T14:30:30.189Z,101905.41
2022-08-30T14:32:56.541Z,101907.69
2022-08-30T14:35:22.935Z,101907.44
2022-08-30T14:37:50.414Z,101914.47
2022-08-30T14:40:17.698Z,101904.50
2022-08-30T14:42:44.132Z,101910.59
2022-08-30T14:45:10.925Z,101906.66
2022-08-30T14:47:37.351Z,101905.94
2022-08-30T14:50:06.164Z,101913.72
2022-08-30T14:52:33.276Z,101919.72
2022-08-30T14:55:08.684Z,101913.56
2022-08-30T14:57:37.400Z,101917.03
2022-08-30T15:00:06.795Z,101909.16
2022-08-30T15:02:33.148Z,101916.34
2022-08-30T15:04:59.540Z,101902.28
2022-08-30T15:07:25.934Z,101905.66
2022-08-30T15:09:53.027Z,101904.72
2022-08-30T15:12:19.456Z,101906.56
2022-08-30T15:14:46.337Z,101911.38
2022-08-30T15:17:12.968Z,101913.22
2022-08-30T15:19:39.492Z,101918.34
2022-08-30T15:22:06.839Z,101913.72
2022-08-30T15:24:34.753Z,101923.84
2022-08-30T15:27:02.099Z,101914.34
2022-08-30T15:29:30.527Z,101913.94
2022-08-30T15:31:59.932Z,101923.78
2022-08-30T15:34:28.271Z,101914.19
2022-08-30T15:36:55.085Z,101916.16
2022-08-30T15:39:21.501Z,101915.94
2022-08-30T15:41:57.079Z,101928.38
2022-08-30T15:44:26.648Z,101919.03
2022-08-30T15:46:53.184Z,101929.81
2022-08-30T15:49:21.946Z,101920.72
2022-08-30T15:51:51.430Z,101921.28
2022-08-30T15:54:21.108Z,101931.19
2022-08-30T15:56:48.069Z,101922.53
2022-08-30T15:59:15.375Z,101921.25
2022-08-30T16:01:43.322Z,101914.94
2022-08-30T16:04:10.638Z,101918.63
2022-08-30T16:06:37.737Z,101913.44
2022-08-30T16:09:05.976Z,101917.19
2022-08-30T16:11:32.993Z,101910.03
2022-08-30T16:14:01.080Z,101907.41
2022-08-30T16:16:27.595Z,101905.00
2022-08-30T16:18:55.091Z,101904.53
2022-08-30T16:21:28.087Z,101908.66
2022-08-30T16:24:00.483Z,101909.22
2022-08-30T16:26:28.499Z,101903.38
2022-08-30T16:28:55.497Z,101903.66
2022-08-30T16:31:23.437Z,101903.56
2022-08-30T16:33:52.677Z,101906.13
2022-08-30T16:36:20.354Z,101905.38
2022-08-30T16:38:48.602Z,101904.63
2022-08-30T16:41:21.009Z,101905.63
2022-08-30T16:43:49.628Z,101899.03
2022-08-30T16:46:22.877Z,101906.28
2022-08-30T16:48:50.021Z,101913.47
2022-08-30T16:51:21.192Z,101911.16
2022-08-30T16:53:49.321Z,101905.91
2022-08-30T16:56:18.782Z,101902.25
2022-08-30T16:58:46.837Z,101901.47
2022-08-30T17:01:13.985Z,101913.16
2022-08-30T17:03:41.087Z,101902.91
2022-08-30T17:06:08.123Z,101910.19
2022-08-30T17:08:34.919Z,101910.31
2022-08-30T17:11:01.466Z,101905.09
2022-08-30T17:13:28.409Z,101911.44
2022-08-30T17:15:55.806Z,101908.75
2022-08-30T17:18:22.388Z,101907.53
2022-08-30T17:20:48.864Z,101904.88
2022-08-30T17:23:15.628Z,101912.69
2022-08-30T17:25:43.295Z,101923.44
2022-08-30T17:28:10.822Z,101920.00
2022-08-30T17:30:37.520Z,101922.63
2022-08-30T17:33:04.521Z,101922.94
2022-08-30T17:35:31.056Z,101929.38
2022-08-30T17:37:57.748Z,101924.19
2022-08-30T17:40:24.168Z,101929.59
2022-08-30T17:42:51.034Z,101921.09
2022-08-30T17:45:17.995Z,101930.22
2022-08-30T17:47:44.912Z,101926.00
2022-08-30T17:50:12.130Z,101935.44
2022-08-30T17:52:39.006Z,101931.22
2022-08-30T17:55:07.091Z,101930.38
2022-08-30T17:57:33.576Z,101936.56
2022-08-30T18:00:00.720Z,101942.06
2022-08-30T18:02:29.917Z,101942.19
2022-08-30T18:04:58.107Z,101947.41
2022-08-30T18:07:26.360Z,101946.75
2022-08-30T18:09:53.808Z,101940.00
2022-08-30T18:12:21.105Z,101949.59
2022-08-30T18:14:52.887Z,101949.75
2022-08-30T18:17:20.848Z,101951.00
2022-08-30T18:19:47.307Z,101957.25
2022-08-30T18:22:15.722Z,101954.00
2022-08-30T18:24:42.103Z,101956.75
2022-08-30T18:27:08.448Z,101953.47
2022-08-30T18:29:37.824Z,101958.59
2022-08-30T18:32:04.717Z,101968.00
2022-08-30T18:34:32.483Z,101964.81
2022-08-30T18:36:59.640Z,101970.31
2022-08-30T18:39:26.228Z,101969.72
2022-08-30T18:41:55.752Z,101975.03
2022-08-30T18:44:28.414Z,101964.75
2022-08-30T18:46:57.182Z,101966.53
2022-08-30T18:49:25.139Z,101972.00
2022-08-30T18:51:51.679Z,101976.28
2022-08-30T18:54:18.432Z,101971.91
2022-08-30T18:56:45.396Z,101981.63
2022-08-30T18:59:12.522Z,101985.13
2022-08-30T19:01:39.026Z,101983.41
2022-08-30T19:04:07.041Z,101984.59
2022-08-30T19:06:34.479Z,101985.50
2022-08-30T19:09:00.852Z,101989.16
2022-08-30T19:11:27.707Z,101990.16
2022-08-30T19:13:54.815Z,101988.56
2022-08-30T19:16:21.938Z,101992.19
2022-08-30T19:18:48.605Z,101993.16
2022-08-30T19:21:15.173Z,101994.97
2022-08-30T19:23:44.277Z,102004.66
2022-08-30T19:26:10.771Z,101997.69
2022-08-30T19:28:37.781Z,101989.94
2022-08-30T19:31:06.492Z,101999.66
2022-08-30T19:33:33.280Z,101999.81
2022-08-30T19:36:00.455Z,101993.72
2022-08-30T19:38:26.944Z,101995.44
2022-08-30T19:40:59.911Z,101995.47
2022-08-30T19:43:27.607Z,102003.47
2022-08-30T19:45:59.549Z,101995.69
2022-08-30T19:48:32.116Z,102001.06
2022-08-30T19:51:06.446Z,102002.00
2022-08-30T19:53:33.862Z,102004.59
2022-08-30T19:56:00.472Z,102008.94
2022-08-30T19:58:27.008Z,102003.63
2022-08-30T20:00:54.499Z,102004.56
2022-08-30T20:03:28.022Z,102003.72
2022-08-30T20:05:54.777Z,102005.53
2022-08-30T20:08:21.801Z,101996.00
2022-08-30T20:10:48.501Z,101996.88
2022-08-30T20:13:15.047Z,101995.94
2022-08-30T20:15:41.539Z,101997.72
2022-08-30T20:18:13.583Z,101999.50
2022-08-30T20:20:42.734Z,101993.44
2022-08-30T20:23:16.120Z,101996.13
2022-08-30T20:25:49.744Z,101995.34
2022-08-30T20:28:16.337Z,101990.25
2022-08-30T20:30:43.533Z,101988.41
2022-08-30T20:33:10.339Z,101991.06
2022-08-30T20:35:36.845Z,101991.97
2022-08-30T20:38:06.357Z,101992.81
2022-08-30T20:40:34.880Z,101994.59
2022-08-30T20:43:02.081Z,101987.66
2022-08-30T20:45:31.098Z,101990.31
2022-08-30T20:47:57.572Z,101995.53
2022-08-30T20:50:24.051Z,101997.13
2022-08-30T20:52:50.425Z,101994.63
2022-08-30T20:55:17.332Z,102006.03
2022-08-30T20:57:44.128Z,101996.50
2022-08-30T21:00:13.529Z,101997.41
2022-08-30T21:02:45.573Z,101999.13
2022-08-30T21:05:15.263Z,101996.56
2022-08-30T21:07:43.097Z,101997.44
2022-08-30T21:10:10.415Z,102006.19
2022-08-30T21:12:36.833Z,101998.34
2022-08-30T21:15:27.002Z,102000.94
2022-08-30T21:17:51.144Z,102009.66
2022-08-30T21:20:17.660Z,102004.50
2022-08-30T21:22:43.997Z,102011.44
2022-08-30T21:25:11.077Z,102003.59
2022-08-30T21:27:37.476Z,102008.00
2022-08-30T21:30:04.960Z,102008.88
2022-08-30T21:32:31.980Z,102014.94
2022-08-30T21:35:17.068Z,102016.72
2022-08-30T21:37:43.436Z,102015.81
2022-08-30T21:40:14.852Z,102019.28
2022-08-30T21:42:41.809Z,102018.44
2022-08-30T21:45:08.836Z,102015.84
2022-08-30T21:47:35.268Z,102016.72
2022-08-30T21:50:01.901Z,102020.19
2022-08-30T21:52:28.224Z,102028.00
2022-08-30T21:54:54.585Z,102020.16
2022-08-30T21:57:20.997Z,102025.41
2022-08-30T21:59:47.361Z,102024.50
2022-08-30T22:02:13.866Z,102027.16
2022-08-30T22:04:41.124Z,102030.66
2022-08-30T22:07:08.267Z,102041.09
2022-08-30T22:09:35.499Z,102046.31
2022-08-30T22:12:04.533Z,102048.03
2022-08-30T22:14:33.512Z,102047.19
2022-08-30T22:16:59.964Z,102049.81
2022-08-30T22:19:26.525Z,102053.25
2022-08-30T22:21:53.829Z,102048.91
2022-08-30T22:24:29.226Z,102059.34
2022-08-30T22:26:58.971Z,102054.13
2022-08-30T22:29:25.309Z,102059.34
2022-08-30T22:31:51.780Z,102058.50
2022-08-30T22:34:18.157Z,102055.88
2022-08-30T22:36:44.570Z,102057.56
2022-08-30T22:39:11.181Z,102052.34
2022-08-30T22:41:37.610Z,102065.38
2022-08-30T22:44:04.426Z,102065.38
2022-08-30T22:46:34.372Z,102056.72
2022-08-30T22:49:02.198Z,102062.78
2022-08-30T22:51:29.030Z,102066.28
2022-08-30T22:53:55.779Z,102067.13
2022-08-30T22:56:24.890Z,102070.59
2022-08-30T22:58:52.355Z,102074.84
2022-08-30T23:01:39.810Z,102078.41
2022-08-30T23:04:07.667Z,102078.38
2022-08-30T23:06:34.382Z,102075.75
2022-08-30T23:09:01.217Z,102079.22
2022-08-30T23:11:27.783Z,102079.28
2022-08-30T23:13:56.702Z,102083.63
2022-08-30T23:16:23.577Z,102075.75
2022-08-30T23:18:50.097Z,102083.50
2022-08-30T23:21:23.902Z,102087.81
2022-08-30T23:24:10.932Z,102086.97
2022-08-30T23:26:56.720Z,102081.81
2022-08-30T23:29:42.727Z,102082.66
2022-08-30T23:32:28.227Z,102085.28
2022-08-30T23:35:13.722Z,102089.72
2022-08-30T23:37:58.466Z,102090.47
2022-08-30T23:40:43.622Z,102093.09
2022-08-30T23:43:29.291Z,102088.72
2022-08-30T23:46:18.868Z,102088.72
2022-08-30T23:49:04.370Z,102093.81
2022-08-30T23:51:49.747Z,102084.28
2022-08-30T23:54:34.753Z,102095.47
2022-08-30T23:57:19.596Z,102091.06
